首页
METAR-TAF:

METAR-TAF

机场 :

因斯布魯克機場

因斯布鲁克, 奥地利

纬度: 47-16N, 经度: 011-21E, 海拔: 581米

当前天气观测

该预报发布于33分钟前的03:20 UTC
风速4节,风向西
温度 -2°C
湿度 86%
气压 1007 hPa
能见度10公里或以上
少量云层高于600英尺

METAR: LOWI 140320Z AUTO 27004KT 9999 FEW006 M02/M04 Q1007

时间: 04:53 (03:53 UTC)

预报

该预报发布于4小时和38分钟前的23:15 UTC
预报有效从14日的 00点(UTC)到 14日的 24点(UTC)
风速2节,风向多变
能見度: 8000
散云层高于500英尺
多云层高于1500英尺
短暂存在
从 14日的 00点(UTC)到 14日的 09点(UTC)
能見度: 0500
层高于500英尺
冻雾
成为
从 14日的 10点(UTC)到 14日的 12点(UTC)
风速7节,风向西
能见度10公里或以上
少量云层高于3000英尺
短暂存在
从 14日的 12点(UTC)到 14日的 18点(UTC)
风速15节,风向东转东南,有时为25节阵风

TAF: LOWI 132315Z 1400/1424 VRB02KT 8000 SCT005 BKN015 TX06/1412Z TNM02/1405Z TEMPO 1400/1409 0500 FZFG VV005 BECMG 1410/1412 27007KT 9999 FEW030 TEMPO 1412/1418 12015G25KT

超过4000个机场的气象观测和天气预报(METAR&TAF报告)。

可查询的气象台以黄色和红色小点在地图上表示。

将鼠标移到小点上方,可查看气象台名称。

然后点击查看天气观测和预报。

如需切换地图:点击带黑十字的绿色按钮放大地图;点击带横线的绿色按钮缩小地图;或者点击绿色箭头查看邻近地区的地图。


METAR-TAF: